Time;durP1;ratioP1;P1;durP2;ratioP2;P2;SDS_P1;SDS_P2;PMS_P1;PMS_P2;Temp;Humidity;BMP_temperature;BMP_pressure;BME280_temperature;BME280_humidity;BME280_pressure;Samples;Min_cycle;Max_cycle;Signal;HPM_P1;HPM_P2
2022/02/02 00:05:06;;;;;;;7.32;4.50;;;;;;;-1.57;100.00;98523.19;4969199;28;20176;-51
2022/02/02 00:08:05;;;;;;;7.35;4.45;;;;;;;-1.27;100.00;98583.19;4983184;28;20049;-54
2022/02/02 00:13:59;;;;;;;8.27;4.30;;;;;;;-1.21;100.00;98599.72;4996991;28;20479;-54
2022/02/02 00:16:51;;;;;;;6.45;3.88;;;;;;;-1.21;100.00;98578.03;4980276;28;20129;-57
2022/02/02 00:22:27;;;;;;;;;;;;;;;-1.25;100.00;98605.75;4975626;28;20053;-55
2022/02/02 00:27:59;;;;;;;8.55;3.53;;;;;;;-1.35;100.00;98606.53;4970039;28;20101;-58
2022/02/02 00:30:44;;;;;;;8.60;4.30;;;;;;;-1.34;100.00;98603.06;4954817;28;20123;-54
2022/02/02 00:33:33;;;;;;;6.10;4.28;;;;;;;-1.25;100.00;98610.94;4968687;28;20058;-54
2022/02/02 00:36:23;;;;;;;8.98;4.43;;;;;;;-1.29;100.00;98592.72;4988670;28;20185;-54
2022/02/02 00:39:07;;;;;;;7.10;4.70;;;;;;;-1.29;100.00;98596.19;4953630;28;20050;-56
2022/02/02 00:41:59;;;;;;;7.45;4.40;;;;;;;-1.37;100.00;98596.97;4975329;28;20525;-59
2022/02/02 00:44:48;;;;;;;7.03;3.85;;;;;;;-1.38;100.00;98596.09;4986109;28;20053;-55
2022/02/02 00:47:38;;;;;;;5.20;3.85;;;;;;;-1.48;100.00;98602.09;4971619;28;20057;-55
2022/02/02 00:50:24;;;;;;;6.90;4.90;;;;;;;-1.44;100.00;98605.56;4985592;28;20057;-57
2022/02/02 00:53:10;;;;;;;6.15;4.50;;;;;;;-1.41;100.00;98606.50;4985750;28;20112;-56
2022/02/02 00:55:55;;;;;;;9.38;4.65;;;;;;;-1.31;100.00;98597.00;4986166;28;20514;-52
2022/02/02 00:58:40;;;;;;;8.07;4.38;;;;;;;-1.71;100.00;98549.06;4987761;28;20108;-55
2022/02/02 01:01:26;;;;;;;6.50;4.72;;;;;;;-1.66;100.00;98570.75;4986581;28;20155;-53
2022/02/02 01:04:10;;;;;;;;;;;;;;;-1.43;100.00;98604.72;4988631;28;20523;-58
2022/02/02 01:07:16;;;;;;;5.65;3.70;;;;;;;-1.51;100.00;98608.97;4973480;28;19925;-56
2022/02/02 01:10:12;;;;;;;10.30;4.30;;;;;;;-1.85;100.00;98555.88;4986445;28;20418;-57
2022/02/02 01:19:00;;;;;;;8.20;4.32;;;;;;;-1.55;100.00;98607.19;4987444;28;20053;-54
2022/02/02 01:27:49;;;;;;;11.25;4.43;;;;;;;-1.38;100.00;98611.69;4983281;28;20085;-54
2022/02/02 01:30:34;;;;;;;7.72;4.30;;;;;;;-1.62;100.00;98549.13;4967157;28;20058;-55
2022/02/02 01:33:19;;;;;;;7.78;4.13;;;;;;;-1.30;100.00;98610.00;4978833;28;20415;-56
2022/02/02 01:36:06;;;;;;;7.15;3.95;;;;;;;-1.35;100.00;98616.91;4953314;28;20054;-57
2022/02/02 01:38:52;;;;;;;8.07;4.07;;;;;;;-1.29;100.00;98614.38;4951902;28;20077;-55
2022/02/02 01:41:40;;;;;;;7.22;4.03;;;;;;;-1.29;100.00;98603.09;4941697;28;20129;-54
2022/02/02 01:47:14;;;;;;;8.70;3.92;;;;;;;-1.34;100.00;98600.44;4970997;28;20085;-53
2022/02/02 01:53:15;;;;;;;11.60;4.25;;;;;;;-1.32;100.00;98593.56;4986892;28;20132;-54
2022/02/02 01:56:08;;;;;;;9.07;4.43;;;;;;;-1.04;100.00;98598.09;4984828;28;20108;-56
2022/02/02 02:01:44;;;;;;;6.72;3.70;;;;;;;-1.28;100.00;98600.53;4983913;28;20049;-58
2022/02/02 02:04:29;;;;;;;5.82;3.67;;;;;;;-1.30;100.00;98594.41;4972878;28;20073;-56
2022/02/02 02:07:13;;;;;;;6.50;4.07;;;;;;;-1.00;100.00;98591.16;4980605;28;20130;-59
2022/02/02 02:09:59;;;;;;;6.97;4.28;;;;;;;-1.18;100.00;98604.91;4971369;28;20062;-57
2022/02/02 02:13:08;;;;;;;6.97;3.65;;;;;;;-1.16;100.00;98597.13;4984659;28;20176;-58
2022/02/02 02:15:51;;;;;;;7.00;3.53;;;;;;;-0.96;100.00;98619.81;4986629;28;20430;-58
2022/02/02 02:18:36;;;;;;;6.05;3.47;;;;;;;-0.91;100.00;98609.47;4985967;28;20486;-57
2022/02/02 02:21:21;;;;;;;7.70;3.10;;;;;;;-0.88;100.00;98609.44;4970417;28;20106;-61
2022/02/02 02:24:05;;;;;;;5.95;3.85;;;;;;;-1.00;100.00;98596.38;4981675;28;20530;-59
2022/02/02 02:26:50;;;;;;;4.35;2.67;;;;;;;-0.92;100.00;98618.97;4984083;28;20438;-57
2022/02/02 02:36:06;;;;;;;4.93;2.95;;;;;;;-0.88;100.00;98614.66;4964918;28;20287;-57
2022/02/02 02:38:56;;;;;;;6.35;3.30;;;;;;;-1.00;100.00;98615.47;4975790;28;20053;-56
2022/02/02 02:56:56;;;;;;;6.15;3.80;;;;;;;-1.17;100.00;98634.41;4976386;28;20061;-56
2022/02/02 03:13:56;;;;;;;5.68;3.33;;;;;;;-1.41;100.00;98590.00;4962724;28;20110;-57
2022/02/02 03:49:31;;;;;;;6.30;3.67;;;;;;;-0.96;100.00;98678.75;4989190;28;20049;-61
2022/02/02 03:58:18;;;;;;;6.15;3.55;;;;;;;-0.85;100.00;98697.94;4975549;28;20140;-56
2022/02/02 04:01:21;;;;;;;5.50;3.10;;;;;;;-1.11;100.00;98708.13;4962189;28;20270;-55
2022/02/02 04:04:18;;;;;;;6.55;3.22;;;;;;;-1.37;100.00;98654.16;4960271;28;20295;-55
2022/02/02 04:07:07;;;;;;;6.00;3.13;;;;;;;-1.03;100.00;98693.44;4975891;28;20497;-57
2022/02/02 04:09:52;;;;;;;6.05;2.95;;;;;;;-1.01;100.00;98704.75;4962821;28;20065;-56
2022/02/02 04:52:35;;;;;;;6.78;3.20;;;;;;;-0.56;100.00;98731.09;4987376;28;20085;-56
2022/02/02 05:07:17;;;;;;;6.25;3.63;;;;;;;-1.19;100.00;98753.97;4985801;28;20053;-55
2022/02/02 05:16:24;;;;;;;6.97;3.40;;;;;;;-1.24;100.00;98753.06;4972627;28;20057;-60
2022/02/02 05:52:13;;;;;;;7.88;4.25;;;;;;;-1.39;100.00;98794.50;4952512;28;20049;-58
2022/02/02 05:54:57;;;;;;;;;;;;;;;-1.33;100.00;98798.91;4973286;28;20045;-56
2022/02/02 05:57:46;;;;;;;7.85;4.32;;;;;;;-1.44;100.00;98792.69;4985085;28;19925;-54
2022/02/02 06:00:32;;;;;;;8.45;4.13;;;;;;;-1.49;100.00;98799.59;4984835;28;20100;-62
2022/02/02 06:03:20;;;;;;;9.90;4.35;;;;;;;-1.63;100.00;98804.63;4985993;28;20057;-56
2022/02/02 06:06:06;;;;;;;6.88;4.20;;;;;;;-1.68;100.00;98808.88;4984578;28;20125;-56
2022/02/02 06:08:52;;;;;;;6.70;4.13;;;;;;;-1.59;100.00;98801.19;4985983;28;20074;-57
2022/02/02 06:11:40;;;;;;;6.97;3.53;;;;;;;-1.61;100.00;98804.63;4958894;28;20185;-53
2022/02/02 06:14:28;;;;;;;7.15;4.20;;;;;;;-1.62;100.00;98798.56;4977634;28;20061;-58
2022/02/02 06:17:12;;;;;;;6.10;3.78;;;;;;;-1.64;100.00;98804.59;4988217;28;20057;-62
2022/02/02 06:19:57;;;;;;;7.30;3.90;;;;;;;-1.47;100.00;98803.06;4983514;28;20093;-63
2022/02/02 06:22:54;;;;;;;8.40;4.20;;;;;;;-1.56;100.00;98806.44;4987130;28;20470;-60
2022/02/02 06:25:45;;;;;;;5.93;3.17;;;;;;;-1.56;100.00;98798.66;4987791;28;20057;-61
2022/02/02 06:28:34;;;;;;;5.18;3.47;;;;;;;-1.54;100.00;98801.25;4984184;28;20100;-61
2022/02/02 06:31:24;;;;;;;7.22;4.55;;;;;;;-1.64;100.00;98813.28;4986292;28;20177;-63
2022/02/02 06:34:12;;;;;;;7.30;3.58;;;;;;;-1.53;100.00;98809.09;4984726;28;20099;-61
2022/02/02 06:37:01;;;;;;;8.27;4.30;;;;;;;-1.31;100.00;98811.06;4969434;28;20050;-61
2022/02/02 06:39:50;;;;;;;8.30;4.25;;;;;;;-1.42;100.00;98828.25;4984293;28;20533;-63
2022/02/02 06:42:41;;;;;;;7.00;3.65;;;;;;;-1.61;100.00;98836.69;4985153;28;20414;-63
2022/02/02 06:45:26;;;;;;;8.13;4.40;;;;;;;-1.60;100.00;98828.03;4987975;28;20049;-65
2022/02/02 06:48:12;;;;;;;7.93;4.15;;;;;;;-1.32;100.00;98835.31;4989768;28;20473;-60
2022/02/02 06:51:10;;;;;;;;;;;;;;;-1.43;100.00;98849.91;4985176;28;20053;-62
2022/02/02 06:54:10;;;;;;;7.38;4.32;;;;;;;-1.45;100.00;98851.63;4976984;28;19977;-63
2022/02/02 06:57:09;;;;;;;8.57;4.20;;;;;;;-1.43;100.00;98852.50;4968418;28;20100;-59
2022/02/02 07:00:15;;;;;;;8.63;4.47;;;;;;;-1.33;100.00;98859.56;4991162;28;20120;-58
2022/02/02 07:03:34;;;;;;;6.13;3.55;;;;;;;-1.34;100.00;98860.41;4987144;28;20053;-61
2022/02/02 07:06:55;;;;;;;8.40;4.25;;;;;;;-1.21;100.00;98869.25;4980262;28;20526;-61
2022/02/02 07:13:13;;;;;;;9.32;4.18;;;;;;;-1.36;100.00;98861.25;4977513;28;20105;-61
2022/02/02 07:19:05;;;;;;;6.45;4.10;;;;;;;-1.35;100.00;98876.88;4986948;28;20003;-61
2022/02/02 07:22:10;;;;;;;7.45;4.15;;;;;;;-1.32;100.00;98874.31;4988715;28;20116;-61
2022/02/02 07:27:53;;;;;;;7.95;3.80;;;;;;;-1.48;100.00;98859.38;4974412;28;20065;-63
2022/02/02 07:30:54;;;;;;;8.05;4.30;;;;;;;-1.25;100.00;98893.47;4987382;28;20066;-59
2022/02/02 07:33:44;;;;;;;7.57;4.30;;;;;;;-1.37;100.00;98896.78;4972089;28;20185;-72
2022/02/02 07:36:39;;;;;;;7.72;4.15;;;;;;;-1.48;100.00;98902.69;4973891;28;20064;-58
2022/02/02 07:39:27;;;;;;;9.73;5.13;;;;;;;-1.29;100.00;98892.56;4968604;28;20049;-62
2022/02/02 07:42:12;;;;;;;7.63;3.80;;;;;;;-1.11;100.00;98903.16;4961894;28;20101;-65
2022/02/02 07:45:08;;;;;;;5.90;3.33;;;;;;;-1.39;100.00;98908.88;4994093;28;20504;-68
2022/02/02 07:48:05;;;;;;;8.18;4.25;;;;;;;-1.17;100.00;98897.91;5007638;28;20057;-68
2022/02/02 07:50:54;;;;;;;6.80;3.80;;;;;;;-1.31;100.00;98917.66;4960181;28;20564;-63
2022/02/02 07:53:43;;;;;;;9.20;4.22;;;;;;;-1.47;100.00;98902.72;4974487;28;20422;-62
2022/02/02 07:56:41;;;;;;;7.65;3.40;;;;;;;-1.18;100.00;98913.50;4984192;28;20130;-60
2022/02/02 07:59:55;;;;;;;7.15;3.67;;;;;;;-1.11;100.00;98916.16;4981093;28;20056;-61
2022/02/02 08:05:31;;;;;;;6.15;3.58;;;;;;;-1.04;100.00;98925.78;4975309;28;20060;-60
2022/02/02 08:11:08;;;;;;;7.00;3.50;;;;;;;-1.01;100.00;98860.81;4970257;28;20093;-60
2022/02/02 08:13:57;;;;;;;6.43;3.40;;;;;;;-0.57;100.00;98919.38;4986966;28;20205;-61
2022/02/02 08:16:43;;;;;;;6.90;3.83;;;;;;;-0.26;100.00;98942.25;4987997;28;20112;-58
2022/02/02 08:19:28;;;;;;;5.53;3.17;;;;;;;-0.34;100.00;98933.50;4986576;28;20053;-61
2022/02/02 08:22:13;;;;;;;6.18;3.30;;;;;;;-0.51;100.00;98935.03;4989484;28;20057;-58
2022/02/02 08:24:58;;;;;;;6.13;3.70;;;;;;;-0.90;100.00;98911.19;4986141;28;20109;-58
2022/02/02 08:27:46;;;;;;;6.40;3.50;;;;;;;-0.78;100.00;98954.72;4973725;28;20154;-60
2022/02/02 08:30:32;;;;;;;6.93;3.60;;;;;;;-0.40;100.00;98948.16;4968047;28;20096;-61
2022/02/02 08:33:22;;;;;;;5.95;3.53;;;;;;;-0.36;100.00;98940.41;4969224;28;20054;-54
2022/02/02 08:36:15;;;;;;;6.07;3.83;;;;;;;-0.26;100.00;98955.28;4976470;28;20072;-55
2022/02/02 08:42:02;;;;;;;5.70;3.30;;;;;;;-0.15;100.00;98945.81;4987514;28;20053;-61
2022/02/02 08:45:12;;;;;;;7.70;3.40;;;;;;;0.04;100.00;98950.31;4987597;28;20057;-59
2022/02/02 08:48:01;;;;;;;5.95;3.08;;;;;;;0.17;100.00;98959.97;4976818;28;20050;-56
2022/02/02 08:50:57;;;;;;;4.75;2.90;;;;;;;0.06;100.00;98965.97;4969718;28;20073;-58
2022/02/02 08:59:25;;;;;;;7.03;3.13;;;;;;;-0.11;100.00;98915.47;4986494;28;20093;-56
2022/02/02 09:02:17;;;;;;;7.40;3.72;;;;;;;0.45;100.00;98968.00;4984497;28;20552;-57
2022/02/02 09:08:04;;;;;;;4.63;3.20;;;;;;;0.97;100.00;98951.78;4987465;28;20634;-56
2022/02/02 09:32:26;;;;;;;7.72;2.88;;;;;;;0.77;100.00;98964.75;4918614;29;20111;-53
2022/02/02 09:35:12;;;;;;;6.45;2.70;;;;;;;0.93;100.00;98950.91;4916372;29;20604;-56
2022/02/02 09:37:57;;;;;;;5.53;2.78;;;;;;;0.88;100.00;98978.72;4918724;29;20102;-58
2022/02/02 09:43:34;;;;;;;9.27;2.88;;;;;;;1.01;100.00;98951.81;4923161;29;20139;-55
2022/02/02 09:46:23;;;;;;;3.20;2.22;;;;;;;1.07;100.00;98977.94;4918396;29;20143;-58
2022/02/02 09:49:18;;;;;;;6.00;3.33;;;;;;;0.81;100.00;98982.16;4916877;29;20050;-55
2022/02/02 09:52:13;;;;;;;5.18;2.53;;;;;;;0.64;100.00;98983.81;4923863;29;20550;-55
2022/02/02 09:55:31;;;;;;;6.65;3.42;;;;;;;0.64;100.00;98995.97;4911610;29;20074;-56
2022/02/02 09:58:35;;;;;;;6.03;2.53;;;;;;;0.81;100.00;98991.72;4979233;28;20479;-58
2022/02/02 10:16:25;;;;;;;6.00;3.40;;;;;;;1.23;100.00;98989.31;4914566;29;20256;-62
2022/02/02 10:19:14;;;;;;;5.88;3.20;;;;;;;1.05;100.00;99002.28;4915854;29;20054;-64
2022/02/02 10:21:59;;;;;;;7.18;3.20;;;;;;;0.94;100.00;98988.31;4925247;29;20054;-57
2022/02/02 10:24:45;;;;;;;4.45;2.50;;;;;;;1.11;100.00;98994.50;4908731;29;20072;-62
2022/02/02 10:27:36;;;;;;;6.75;3.05;;;;;;;1.17;100.00;99007.56;4917157;29;20095;-56
2022/02/02 10:30:22;;;;;;;7.03;3.10;;;;;;;1.16;100.00;99000.59;4912788;29;20055;-55
2022/02/02 10:33:28;;;;;;;5.65;2.72;;;;;;;0.95;100.00;99005.72;4914018;29;20054;-62
2022/02/02 10:36:20;;;;;;;6.35;3.50;;;;;;;1.16;100.00;98998.88;4909446;29;20095;-56
2022/02/02 10:39:11;;;;;;;4.10;2.22;;;;;;;0.49;100.00;99007.16;4918640;29;20464;-56
2022/02/02 10:41:59;;;;;;;4.68;2.58;;;;;;;0.52;100.00;98995.88;4920276;29;20146;-60
2022/02/02 10:44:46;;;;;;;5.72;2.47;;;;;;;0.71;100.00;98995.13;4922021;29;20188;-54
2022/02/02 10:47:40;;;;;;;4.88;2.50;;;;;;;0.19;100.00;98972.16;4904880;29;20106;-54
2022/02/02 10:50:36;;;;;;;6.25;2.55;;;;;;;0.39;100.00;98988.84;4928730;29;20050;-57
2022/02/02 11:08:22;;;;;;;5.28;2.65;;;;;;;2.97;100.00;99013.03;4935328;29;20141;-65
2022/02/02 11:11:11;;;;;;;8.60;2.80;;;;;;;3.01;100.00;99006.94;4934695;29;20180;-59
2022/02/02 11:14:04;;;;;;;5.63;2.65;;;;;;;3.95;100.00;99006.50;4945074;29;20093;-58
2022/02/02 11:17:06;;;;;;;6.20;2.90;;;;;;;4.93;100.00;99006.59;4949168;29;20102;-58
2022/02/02 11:19:56;;;;;;;7.93;2.85;;;;;;;5.07;100.00;99007.31;4935262;29;20054;-56
2022/02/02 11:22:53;;;;;;;5.53;2.90;;;;;;;5.65;100.00;98999.63;4939873;29;20471;-58
2022/02/02 11:25:41;;;;;;;7.25;3.20;;;;;;;5.44;100.00;99014.78;4946298;29;20543;-54
2022/02/02 11:28:32;;;;;;;5.70;3.03;;;;;;;6.22;100.00;99017.28;4934743;29;20054;-59
2022/02/02 11:31:18;;;;;;;6.32;2.83;;;;;;;5.62;100.00;99006.69;4949303;29;20093;-60
2022/02/02 11:34:20;;;;;;;6.65;3.00;;;;;;;6.05;100.00;99010.53;4948279;29;20057;-63
2022/02/02 11:37:06;;;;;;;5.15;3.28;;;;;;;6.55;100.00;99006.22;4988602;28;20181;-56
2022/02/02 11:40:08;;;;;;;6.78;3.10;;;;;;;6.67;100.00;99020.94;4975680;28;20085;-57
2022/02/02 11:43:05;;;;;;;6.95;3.35;;;;;;;5.74;100.00;98960.03;4982749;28;20084;-55
2022/02/02 11:46:00;;;;;;;4.80;3.25;;;;;;;4.80;100.00;99025.94;4983836;28;20057;-63
2022/02/02 11:48:57;;;;;;;4.88;3.47;;;;;;;4.11;100.00;99034.38;4988466;28;20049;-57
2022/02/02 11:51:50;;;;;;;7.00;3.40;;;;;;;3.77;100.00;99039.81;4988784;28;20057;-58
2022/02/02 11:54:39;;;;;;;5.45;2.92;;;;;;;3.78;100.00;99031.06;4973399;28;20104;-54
2022/02/02 11:57:44;;;;;;;6.15;2.97;;;;;;;3.42;100.00;99045.22;4974326;28;20194;-61
2022/02/02 12:00:42;;;;;;;6.10;3.47;;;;;;;2.98;100.00;99044.47;4989489;28;20136;-58
2022/02/02 12:07:06;;;;;;;6.35;3.72;;;;;;;3.02;100.00;99045.31;4929459;29;20547;-60
2022/02/02 12:09:59;;;;;;;6.95;3.42;;;;;;;2.97;100.00;99047.09;4919305;29;20527;-58
2022/02/02 12:49:57;;;;;;;6.57;3.40;;;;;;;1.55;100.00;99068.69;4873587;29;20940;-55
2022/02/02 12:58:37;;;;;;;6.95;3.22;;;;;;;1.31;100.00;99045.94;4908155;28;20138;-62
2022/02/02 13:01:23;;;;;;;6.07;3.05;;;;;;;1.73;100.00;99079.19;4963848;28;20057;-58
2022/02/02 13:04:09;;;;;;;10.10;3.40;;;;;;;1.45;100.00;99086.03;4968116;28;20142;-57
2022/02/02 13:06:54;;;;;;;7.82;3.28;;;;;;;1.62;100.00;99094.81;4969514;28;20054;-58
2022/02/02 13:09:41;;;;;;;5.80;3.00;;;;;;;1.21;100.00;99071.97;4982289;28;20069;-57
2022/02/02 13:12:43;;;;;;;9.02;3.60;;;;;;;0.72;100.00;99085.56;4953951;28;20534;-61
2022/02/02 13:15:40;;;;;;;9.55;3.67;;;;;;;0.39;100.00;99049.66;4994235;28;20053;-57
2022/02/02 13:18:36;;;;;;;8.05;3.65;;;;;;;0.46;100.00;99084.47;4988269;28;20525;-60
2022/02/02 13:21:32;;;;;;;8.30;3.65;;;;;;;0.59;100.00;99092.41;4967613;28;20061;-57
2022/02/02 13:24:20;;;;;;;;;;;;;;;0.61;100.00;99087.22;4951491;28;20050;-56
2022/02/02 13:27:15;;;;;;;9.68;3.33;;;;;;;0.35;100.00;99096.56;4954286;28;19977;-55
2022/02/02 13:30:05;;;;;;;12.98;4.05;;;;;;;0.38;100.00;99097.44;4983744;28;20041;-54
2022/02/02 13:32:53;;;;;;;11.27;4.05;;;;;;;0.32;100.00;99101.72;4964760;28;20057;-56
2022/02/02 13:35:49;;;;;;;12.40;3.78;;;;;;;0.35;100.00;99112.19;4969270;28;20092;-57
2022/02/02 13:38:47;;;;;;;;;;;;;;;0.04;100.00;99083.22;4987728;28;20053;-55
2022/02/02 13:51:09;;;;;;;11.45;5.22;;;;;;;-0.10;100.00;99126.50;4945164;29;20550;-59
2022/02/02 13:54:30;;;;;;;14.45;5.20;;;;;;;-0.14;100.00;99118.63;4945216;29;20050;-59
2022/02/02 14:00:36;;;;;;;10.05;4.18;;;;;;;-0.19;100.00;99126.38;4944986;29;20154;-56
2022/02/02 14:33:52;;;;;;;10.98;3.50;;;;;;;0.08;100.00;99164.91;4967406;28;20049;-62
2022/02/02 14:36:40;;;;;;;8.65;2.90;;;;;;;0.04;100.00;99174.41;4952845;28;20058;-60
2022/02/02 14:39:38;;;;;;;10.18;3.47;;;;;;;-0.11;100.00;99176.81;4970285;28;20530;-57
2022/02/02 14:42:28;;;;;;;7.50;3.20;;;;;;;-0.41;100.00;99176.44;4953862;28;20419;-55
2022/02/02 14:45:17;;;;;;;11.25;3.90;;;;;;;-0.33;100.00;99169.63;4985610;28;20057;-54
2022/02/02 14:48:15;;;;;;;8.52;3.50;;;;;;;-0.46;100.00;99136.47;4986552;28;20100;-56
2022/02/02 14:51:14;;;;;;;6.75;3.65;;;;;;;-0.25;100.00;99178.41;4986634;28;20085;-57
2022/02/02 14:54:30;;;;;;;8.73;3.72;;;;;;;-0.42;100.00;99150.38;4987410;28;20053;-62
2022/02/02 15:28:16;;;;;;;5.32;2.88;;;;;;;-0.51;100.00;99212.75;4861512;29;20126;-60
2022/02/02 15:31:04;;;;;;;4.07;2.65;;;;;;;-0.55;100.00;99221.38;4874829;29;20064;-62
2022/02/02 15:33:54;;;;;;;11.88;3.53;;;;;;;-0.27;100.00;99221.75;4857475;29;20187;-64
2022/02/02 15:39:32;;;;;;;8.15;3.65;;;;;;;-0.23;100.00;99236.56;4874827;29;20059;-59
2022/02/02 15:42:38;;;;;;;8.05;3.90;;;;;;;-0.21;100.00;99231.38;4850857;29;20060;-60
2022/02/02 15:58:08;;;;;;;7.20;3.72;;;;;;;0.23;100.00;99255.44;4947614;29;20050;-62
2022/02/02 16:03:44;;;;;;;10.05;4.28;;;;;;;0.17;100.00;99241.44;4948247;29;20115;-61
2022/02/02 16:06:29;;;;;;;7.28;3.45;;;;;;;0.17;100.00;99244.91;4934911;29;20125;-56
2022/02/02 16:09:23;;;;;;;;;;;;;;;0.21;100.00;99250.19;4922611;29;20058;-59
2022/02/02 16:12:31;;;;;;;7.85;3.65;;;;;;;-0.05;100.00;99246.38;4929441;29;19945;-60
2022/02/02 16:15:21;;;;;;;6.47;3.70;;;;;;;-0.29;100.00;99248.63;4915480;29;20527;-64
2022/02/02 16:39:24;;;;;;;9.98;4.90;;;;;;;-0.13;100.00;99211.53;4911519;29;20172;-60
2022/02/02 16:45:13;;;;;;;9.50;4.78;;;;;;;-0.03;100.00;99250.75;4967045;28;20078;-65
2022/02/02 16:47:58;;;;;;;11.40;5.93;;;;;;;0.04;100.00;99275.19;4964846;28;20083;-59
2022/02/02 16:50:48;;;;;;;11.52;6.78;;;;;;;0.13;100.00;99284.84;4960764;28;20049;-61
2022/02/02 16:53:44;;;;;;;12.85;6.60;;;;;;;0.16;100.00;99283.16;4941709;28;20138;-60
2022/02/02 16:56:57;;;;;;;10.18;6.38;;;;;;;0.12;100.00;99289.19;4958945;28;20089;-57
2022/02/02 17:30:29;;;;;;;23.38;12.27;;;;;;;-0.55;100.00;99308.13;4982180;28;20138;-65
2022/02/02 17:36:28;;;;;;;30.58;15.05;;;;;;;-0.65;100.00;99266.31;4984880;28;20077;-59
2022/02/02 17:39:15;;;;;;;23.33;13.55;;;;;;;-0.52;100.00;99312.50;4987277;28;20148;-59
2022/02/02 17:42:32;;;;;;;24.95;13.38;;;;;;;-0.26;100.00;99317.31;4984304;28;20057;-61
2022/02/02 18:21:12;;;;;;;17.92;9.07;;;;;;;-0.09;100.00;99317.53;4985759;28;20224;-66
2022/02/02 18:26:54;;;;;;;14.60;7.75;;;;;;;-0.24;100.00;99305.16;4985786;28;20062;-59
2022/02/02 18:35:17;;;;;;;11.05;7.00;;;;;;;-0.36;100.00;99298.88;4984276;28;20049;-62
2022/02/02 18:50:44;;;;;;;13.80;5.88;;;;;;;-1.00;100.00;99265.75;4946511;28;20125;-61
2022/02/02 19:03:09;;;;;;;12.23;6.72;;;;;;;-0.57;100.00;99332.41;4935940;29;20062;-58
2022/02/02 19:39:56;;;;;;;15.82;7.97;;;;;;;-0.50;100.00;99355.97;4977370;28;20120;-66
2022/02/02 20:03:51;;;;;;;15.40;7.07;;;;;;;-0.53;100.00;99352.41;4987446;28;20045;-63
2022/02/02 20:09:23;;;;;;;14.18;7.00;;;;;;;-0.56;100.00;99360.16;4946793;29;20117;-60
2022/02/02 20:12:11;;;;;;;13.25;6.97;;;;;;;-0.78;100.00;99361.53;4935252;29;20519;-62
2022/02/02 20:14:57;;;;;;;17.75;8.63;;;;;;;-0.87;100.00;99360.50;4932032;29;20046;-61
2022/02/02 20:17:45;;;;;;;18.73;8.57;;;;;;;-0.86;100.00;99357.03;4918060;29;20046;-62
2022/02/02 20:20:37;;;;;;;22.23;9.18;;;;;;;-0.72;100.00;99353.84;4931026;29;20082;-67
2022/02/02 20:23:23;;;;;;;15.15;7.53;;;;;;;-0.77;100.00;99371.09;4916078;29;20087;-71
2022/02/02 20:26:10;;;;;;;15.50;7.75;;;;;;;-1.22;100.00;99364.16;4928209;29;20046;-62
2022/02/02 20:28:55;;;;;;;17.17;7.25;;;;;;;-1.31;100.00;99380.44;4919545;28;20070;-64
2022/02/02 20:31:42;;;;;;;17.90;7.90;;;;;;;-1.72;100.00;99372.63;4913265;29;20066;-60
2022/02/02 20:34:27;;;;;;;15.75;8.48;;;;;;;-1.90;100.00;99321.13;4929988;29;20138;-60
2022/02/02 20:37:16;;;;;;;20.23;9.27;;;;;;;-1.38;100.00;99385.50;4939701;28;20049;-66
2022/02/02 20:40:06;;;;;;;19.05;9.30;;;;;;;-1.29;100.00;99380.47;4970434;28;20554;-63
2022/02/02 20:46:04;;;;;;;21.15;10.77;;;;;;;-1.12;100.00;99387.78;4990707;28;20080;-61
2022/02/02 21:10:13;;;;;;;18.13;9.35;;;;;;;-0.92;100.00;99368.22;4977883;28;20478;-61
2022/02/02 21:16:05;;;;;;;18.55;8.60;;;;;;;-0.70;100.00;99404.19;4983330;28;20132;-61
2022/02/02 21:18:54;;;;;;;17.00;8.23;;;;;;;-0.65;100.00;99399.06;4987558;28;20069;-60
2022/02/02 21:21:51;;;;;;;18.33;8.63;;;;;;;-0.62;100.00;99410.44;4985257;28;20105;-63
2022/02/02 21:27:41;;;;;;;15.77;8.63;;;;;;;-0.63;100.00;99402.59;4984256;28;20056;-59
2022/02/02 21:30:26;;;;;;;19.75;8.45;;;;;;;-0.67;100.00;99406.84;4987119;28;20570;-62
2022/02/02 21:33:16;;;;;;;20.70;9.32;;;;;;;-0.84;100.00;99392.66;4975000;28;20050;-60
2022/02/02 21:36:00;;;;;;;20.92;9.75;;;;;;;-0.76;100.00;99406.69;4972919;28;20084;-61
2022/02/02 21:39:03;;;;;;;21.65;9.35;;;;;;;-0.74;100.00;99409.31;4985553;28;20046;-59
2022/02/02 21:41:50;;;;;;;18.85;9.95;;;;;;;-0.74;100.00;99412.78;4987429;28;20077;-60
2022/02/02 21:44:37;;;;;;;22.75;10.48;;;;;;;-0.78;100.00;99405.75;4968541;28;20170;-62
2022/02/02 21:47:23;;;;;;;22.13;10.10;;;;;;;-0.73;100.00;99417.16;4973132;28;20069;-62
2022/02/02 21:50:13;;;;;;;19.58;9.85;;;;;;;-1.05;100.00;99425.19;4984925;28;20057;-56
2022/02/02 21:52:58;;;;;;;19.65;9.50;;;;;;;-1.07;100.00;99427.75;4987863;28;20088;-60
2022/02/02 21:55:44;;;;;;;17.17;9.48;;;;;;;-1.11;100.00;99419.88;4974242;28;20085;-60
2022/02/02 21:58:29;;;;;;;18.15;9.77;;;;;;;-1.03;100.00;99423.50;4984292;28;20053;-61
2022/02/02 22:01:13;;;;;;;20.08;10.70;;;;;;;-0.97;100.00;99424.50;4987086;28;20128;-60
2022/02/02 22:03:58;;;;;;;20.13;10.27;;;;;;;-1.05;100.00;99423.47;4984876;28;20072;-56
2022/02/02 22:06:43;;;;;;;;;;;;;;;-1.05;100.00;99426.06;4988530;28;20101;-57
2022/02/02 22:09:28;;;;;;;19.98;10.18;;;;;;;-1.16;100.00;99426.69;4987558;28;19933;-61
2022/02/02 22:12:13;;;;;;;;;;;;;;;-1.10;100.00;99437.22;4992263;28;20100;-59
2022/02/02 22:14:58;;;;;;;18.50;9.37;;;;;;;-1.62;100.00;99440.41;4984196;28;19968;-60
2022/02/02 22:17:45;;;;;;;20.33;10.20;;;;;;;-1.74;100.00;99437.53;4980987;28;20288;-66
2022/02/02 22:20:31;;;;;;;21.48;9.82;;;;;;;-1.51;100.00;99432.84;4985029;28;20165;-60
2022/02/02 22:23:17;;;;;;;22.60;10.95;;;;;;;-1.38;100.00;99425.34;4965028;28;20637;-63
2022/02/02 22:26:03;;;;;;;23.45;11.82;;;;;;;-1.67;100.00;99360.59;4984630;28;20132;-61
2022/02/02 22:28:48;;;;;;;25.02;12.55;;;;;;;-1.34;100.00;99429.78;4971157;28;20141;-63
2022/02/02 22:31:34;;;;;;;25.70;12.10;;;;;;;-1.22;100.00;99444.78;4986074;28;20411;-63
2022/02/02 22:34:19;;;;;;;21.65;11.25;;;;;;;-1.26;100.00;99443.81;4987531;28;20126;-56
2022/02/02 22:37:04;;;;;;;20.33;11.27;;;;;;;-1.24;100.00;99438.66;4986291;28;20061;-56
2022/02/02 22:39:52;;;;;;;22.30;11.18;;;;;;;-1.25;100.00;99440.41;4988002;28;20081;-56
2022/02/02 22:42:37;;;;;;;22.73;11.55;;;;;;;-1.40;100.00;99427.06;4989174;28;20085;-57
2022/02/02 22:45:23;;;;;;;22.92;11.57;;;;;;;-1.33;100.00;99441.06;4974838;28;20100;-57
2022/02/02 22:48:09;;;;;;;23.20;11.77;;;;;;;-1.27;100.00;99446.41;4987838;28;20138;-52
2022/02/02 22:50:55;;;;;;;23.48;11.32;;;;;;;-1.24;100.00;99457.75;4987716;28;20053;-60
2022/02/02 22:53:40;;;;;;;30.58;14.15;;;;;;;-1.25;100.00;99445.59;4984105;28;20077;-55
2022/02/02 22:56:25;;;;;;;34.40;16.20;;;;;;;-1.27;100.00;99430.81;4987483;28;20128;-55
2022/02/02 22:59:11;;;;;;;30.08;14.57;;;;;;;-1.22;100.00;99445.63;4971276;28;20149;-56
2022/02/02 23:02:02;;;;;;;26.60;13.23;;;;;;;-1.30;100.00;99446.34;4985654;28;20622;-55
2022/02/02 23:04:50;;;;;;;21.10;12.80;;;;;;;-1.32;100.00;99433.31;4985852;28;20129;-61
2022/02/02 23:07:34;;;;;;;24.20;12.05;;;;;;;-1.21;100.00;99442.22;4986913;28;20054;-56
2022/02/02 23:10:20;;;;;;;25.35;11.80;;;;;;;-1.20;100.00;99433.56;4984681;28;20045;-56
2022/02/02 23:13:07;;;;;;;25.15;12.00;;;;;;;-1.12;100.00;99436.28;4986951;28;20089;-54
2022/02/02 23:16:09;;;;;;;22.70;11.57;;;;;;;-1.13;100.00;99431.94;4988545;28;20153;-60
2022/02/02 23:18:54;;;;;;;24.67;12.23;;;;;;;-1.14;100.00;99430.22;4968456;28;20053;-57
2022/02/02 23:21:39;;;;;;;28.88;12.52;;;;;;;-1.43;100.00;99401.00;4970557;28;20049;-55
2022/02/02 23:24:27;;;;;;;26.98;12.90;;;;;;;-1.23;100.00;99443.03;4961850;28;20059;-55
2022/02/02 23:27:14;;;;;;;23.08;12.98;;;;;;;-1.15;100.00;99444.91;4969475;28;20053;-57
2022/02/02 23:30:01;;;;;;;25.83;12.95;;;;;;;-1.17;100.00;99449.22;4989389;28;20054;-59
2022/02/02 23:32:48;;;;;;;24.27;13.25;;;;;;;-1.18;100.00;99450.06;4958985;28;20094;-53
2022/02/02 23:35:32;;;;;;;26.83;13.00;;;;;;;-1.17;100.00;99450.94;4980431;28;20061;-55
2022/02/02 23:38:16;;;;;;;25.83;12.43;;;;;;;-1.25;100.00;99450.78;4988056;28;20481;-59
2022/02/02 23:43:49;;;;;;;24.42;12.32;;;;;;;-1.70;100.00;99399.53;4986891;28;20049;-56
2022/02/02 23:46:42;;;;;;;21.42;12.10;;;;;;;-1.51;100.00;99444.13;4983473;28;20057;-55